Grand Rapids, MI (49508)

7:11 PM EDT on June 03, 2015 (GMT -0400)
Kentwood | | Change Station
CLOSE
Current Station
Personal Weather Station
Location: Kentwood, MI
Elevation: 725 ft
Nearby Weather Stations

Elev 725 ft 42.87 °N, 85.63 °W | Updated 1 minute ago

Partly Cloudy
Partly Cloudy
75.7 °F
Feels Like 78 °F
N
1.1
Wind Variable Wind from North

Today
High -- | Low -- °F
--% Chance of Precip.
Yesterday
High -- | Low -- °F
Precip. -- in
6:05 AM 9:15 PM
Full, 98% visible
Pressure 30.02 in
Visibility 10.0 miles
Clouds Few 5000 ft
Scattered Clouds 25000 ft
Heat Index 78 °F
Dew Point 58 °F
Humidity 55%
Rainfall 0.00 in
Snow Depth Not available.
UV 2 out of 12
Pollen 8.30 out of 12
Air Quality Not available.
Flu Activity Sporadic
METAR KGRR 032253Z 20010KT 10SM FEW050 SCT250 23/12 A3002 RMK AO2 SLP165 T02330117

More Conditions Fewer Conditions

Pressure 30.02 in
Visibility 10.0 miles
Clouds Few 5000 ft
Scattered Clouds 25000 ft
Heat Index 78 °F
Dew Point 58 °F
Humidity 55%
Rainfall 0.00 in
Snow Depth Not available.
UV 2 out of 12
Pollen 8.30 out of 12
Air Quality Not available.
Flu Activity Sporadic
METAR KGRR 032253Z 20010KT 10SM FEW050 SCT250 23/12 A3002 RMK AO2 SLP165 T02330117

More Conditions Fewer Conditions

10-Day Weather Forecast

×

Almanac

Astronomy

Jun. 03, 2015 Rise Set
Actual Time
Civil Twilight
Nautical Twilight
Astronomical Twilight
Moon
Length of Visible Light
Length of Day
Tomorrow will be .
, % of the Moon is Illuminated

Today's Extremes

State Highs State Lows

Community

WunderPhotos

Upload Photos

1,826,298 photos uploaded!

WunderBlogs® & News

Nearby

Air Quality

  Air Quality AQ Index Pollutant
Not available.

Snow Depth

Station Depth Elevation

Earthquake Activity

City Distance Mag. Time & Date
Minimum magnitude displayed is 2.5.

Coastal Water Temperatures

Place Temperature

Stations

Nearby Weather Stations

Station Location Temp. Windchill Dew Point Humidity Wind Precip. Elev Updated Type